Time;durP1;ratioP1;P1;durP2;ratioP2;P2;SDS_P1;SDS_P2;PMS_P1;PMS_P2;Temp;Humidity;BMP_temperature;BMP_pressure;BME280_temperature;BME280_humidity;BME280_pressure;Samples;Min_cycle;Max_cycle;Signal;HPM_P1;HPM_P2
2021/10/31 00:00:05;;;;;;;;;;;;;;;;;;344438;28;973;-84
2021/10/31 00:00:15;;;;;;;;;;;;;;;;;;345760;28;1068;-80
2021/10/31 00:00:26;;;;;;;;;;;;;;;;;;347067;28;807;-80
2021/10/31 00:00:36;;;;;;;;;;;;;;;;;;347245;28;968;-78
2021/10/31 00:00:46;;;;;;;;;;;;;;;;;;346969;28;994;-86
2021/10/31 00:00:57;;;;;;;;;;;;;;;;;;346237;28;798;-85
2021/10/31 00:01:08;;;;;;;;;;;;;;;;;;347122;28;1179;-85
2021/10/31 00:01:18;;;;;;;;;;;;;;;;;;348105;28;1890;-84
2021/10/31 00:01:29;;;;;;;;;;;;;;;;;;348585;28;869;-84
2021/10/31 00:01:39;;;;;;;;;;;;;;;;;;348118;28;1270;-84
2021/10/31 00:01:55;;;;;;;;;;;;;;;;;;348457;28;853;-85
2021/10/31 00:02:06;;;;;;;;;;;;;;;;;;348623;28;917;-85
2021/10/31 00:02:17;;;;;;;;;;;;;;;;;;348546;28;893;-84
2021/10/31 00:02:27;;;;;;;;;;;;;;;;;;348007;28;1572;-85
2021/10/31 00:02:38;;;;;;;;;;;;;;;;;;348550;28;1027;-84
2021/10/31 00:02:48;;;;;;;;;;;;;;;;;;348616;28;992;-84
2021/10/31 00:02:59;;;;;;;;;;;;;;;;;;347231;28;1004;-79
2021/10/31 00:03:10;;;;;;;;;;;;;;;;;;347287;28;853;-84
2021/10/31 00:03:20;;;;;;;;;;;;;;;;;;345821;28;837;-84
2021/10/31 00:03:31;;;;;;;;;;;;;;;;;;345907;28;877;-84
2021/10/31 00:03:42;;;;;;;;;;;;;;;;;;345832;28;1568;-84
2021/10/31 00:03:52;;;;;;;;;;;;;;;;;;345844;28;973;-84
2021/10/31 00:04:02;;;;;;;;;;;;;;;;;;345731;28;977;-85
2021/10/31 00:04:13;;;;;;;;;;;;;;;;;;345879;28;925;-84
2021/10/31 00:04:23;;;;;;;;;;;;;;;;;;346461;28;1049;-85
2021/10/31 00:04:34;;;;;;;;;;;;;;;;;;346975;28;995;-85
2021/10/31 00:04:44;;;;;;;;;;;;;;;;;;347251;28;917;-83
2021/10/31 00:04:55;;;;;;;;;;;;;;;;;;347241;28;798;-84
2021/10/31 00:05:06;;;;;;;;;;;;;;;;;;347228;28;846;-86
2021/10/31 00:05:23;;;;;;;;;;;;;;;;;;348622;28;854;-85
2021/10/31 00:05:33;;;;;;;;;;;;;;;;;;348520;28;988;-84
2021/10/31 00:05:44;;;;;;;;;;;;;;;;;;347107;28;1434;-85
2021/10/31 00:05:54;;;;;;;;;;;;;;;;;;347270;28;925;-85
2021/10/31 00:06:13;;;;;;;;;;;;;;;;;;348552;28;1013;-85
2021/10/31 00:06:24;;;;;;;;;;;;;;;;;;347189;28;906;-84
2021/10/31 00:06:34;;;;;;;;;;;;;;;;;;347210;28;826;-84
2021/10/31 00:06:45;;;;;;;;;;;;;;;;;;346922;28;997;-85
2021/10/31 00:06:58;;;;;;;;;;;;;;;;;;347159;28;858;-85
2021/10/31 00:07:15;;;;;;;;;;;;;;;;;;348607;28;921;-85
2021/10/31 00:07:32;;;;;;;;;;;;;;;;;;348547;28;1017;-77
2021/10/31 00:07:42;;;;;;;;;;;;;;;;;;349409;28;1018;-79
2021/10/31 00:08:25;;;;;;;;;;;;;;;;;;348514;28;862;-81
2021/10/31 00:08:35;;;;;;;;;;;;;;;;;;348542;28;991;-85
2021/10/31 00:08:47;;;;;;;;;;;;;;;;;;349824;28;1302;-84
2021/10/31 00:08:57;;;;;;;;;;;;;;;;;;350019;28;841;-85
2021/10/31 00:09:08;;;;;;;;;;;;;;;;;;349934;28;944;-86
2021/10/31 00:09:18;;;;;;;;;;;;;;;;;;349945;28;1107;-85
2021/10/31 00:09:29;;;;;;;;;;;;;;;;;;350012;28;853;-86
2021/10/31 00:09:39;;;;;;;;;;;;;;;;;;348501;28;1131;-85
2021/10/31 00:09:50;;;;;;;;;;;;;;;;;;346905;28;1136;-85
2021/10/31 00:10:00;;;;;;;;;;;;;;;;;;344405;28;1271;-84
2021/10/31 00:10:15;;;;;;;;;;;;;;;;;;344449;28;929;-85
2021/10/31 00:10:51;;;;;;;;;;;;;;;;;;343157;28;847;-85
2021/10/31 00:11:18;;;;;;;;;;;;;;;;;;343134;28;846;-84
2021/10/31 00:11:28;;;;;;;;;;;;;;;;;;343134;28;993;-85
2021/10/31 00:11:50;;;;;;;;;;;;;;;;;;345072;28;918;-84
2021/10/31 00:12:00;;;;;;;;;;;;;;;;;;348287;28;1002;-85
2021/10/31 00:12:11;;;;;;;;;;;;;;;;;;349951;28;905;-85
2021/10/31 00:12:21;;;;;;;;;;;;;;;;;;348217;28;1295;-83
2021/10/31 00:12:31;;;;;;;;;;;;;;;;;;347112;28;949;-84
2021/10/31 00:12:42;;;;;;;;;;;;;;;;;;347121;28;1265;-84
2021/10/31 00:12:53;;;;;;;;;;;;;;;;;;347101;28;1420;-83
2021/10/31 00:13:03;;;;;;;;;;;;;;;;;;346882;28;1635;-85
2021/10/31 00:13:14;;;;;;;;;;;;;;;;;;348478;28;1175;-85
2021/10/31 00:13:24;;;;;;;;;;;;;;;;;;348603;28;941;-85
2021/10/31 00:13:35;;;;;;;;;;;;;;;;;;348551;28;1016;-82
2021/10/31 00:13:46;;;;;;;;;;;;;;;;;;348542;28;1008;-83
2021/10/31 00:14:23;;;;;;;;;;;;;;;;;;348586;28;1060;-85
2021/10/31 00:14:34;;;;;;;;;;;;;;;;;;348639;28;1035;-85
2021/10/31 00:14:44;;;;;;;;;;;;;;;;;;348425;28;1338;-84
2021/10/31 00:14:55;;;;;;;;;;;;;;;;;;348456;28;1588;-84
2021/10/31 00:15:05;;;;;;;;;;;;;;;;;;346881;28;1150;-85
2021/10/31 00:15:16;;;;;;;;;;;;;;;;;;348213;28;870;-84
2021/10/31 00:15:26;;;;;;;;;;;;;;;;;;348139;28;1227;-84
2021/10/31 00:15:36;;;;;;;;;;;;;;;;;;347101;28;1337;-83
2021/10/31 00:15:47;;;;;;;;;;;;;;;;;;347075;28;1254;-82
2021/10/31 00:15:57;;;;;;;;;;;;;;;;;;347235;28;989;-84
2021/10/31 00:16:08;;;;;;;;;;;;;;;;;;347231;28;976;-82
2021/10/31 00:16:18;;;;;;;;;;;;;;;;;;345658;28;1136;-83
2021/10/31 00:16:28;;;;;;;;;;;;;;;;;;345759;28;1444;-83
2021/10/31 00:16:39;;;;;;;;;;;;;;;;;;345755;28;1331;-83
2021/10/31 00:16:49;;;;;;;;;;;;;;;;;;345592;28;1038;-82
2021/10/31 00:16:59;;;;;;;;;;;;;;;;;;345671;28;973;-83
2021/10/31 00:17:10;;;;;;;;;;;;;;;;;;345767;28;1471;-82
2021/10/31 00:17:20;;;;;;;;;;;;;;;;;;345626;28;1427;-82
2021/10/31 00:17:31;;;;;;;;;;;;;;;;;;345787;28;968;-84
2021/10/31 00:17:41;;;;;;;;;;;;;;;;;;344534;28;811;-85
2021/10/31 00:17:52;;;;;;;;;;;;;;;;;;345558;28;1201;-85
2021/10/31 00:18:02;;;;;;;;;;;;;;;;;;345735;28;927;-83
2021/10/31 00:18:13;;;;;;;;;;;;;;;;;;345810;28;1207;-86
2021/10/31 00:18:23;;;;;;;;;;;;;;;;;;345849;28;826;-86
2021/10/31 00:18:33;;;;;;;;;;;;;;;;;;345704;28;1452;-86
2021/10/31 00:18:44;;;;;;;;;;;;;;;;;;345866;28;997;-86
2021/10/31 00:18:54;;;;;;;;;;;;;;;;;;345846;28;849;-85
2021/10/31 00:19:05;;;;;;;;;;;;;;;;;;345855;28;834;-86
2021/10/31 00:19:15;;;;;;;;;;;;;;;;;;346407;28;976;-83
2021/10/31 00:19:31;;;;;;;;;;;;;;;;;;347210;28;1048;-84
2021/10/31 00:19:42;;;;;;;;;;;;;;;;;;347080;28;1414;-84
2021/10/31 00:19:53;;;;;;;;;;;;;;;;;;348316;28;1332;-84
2021/10/31 00:20:07;;;;;;;;;;;;;;;;;;348510;28;1011;-84
2021/10/31 00:20:24;;;;;;;;;;;;;;;;;;348545;28;1008;-83
2021/10/31 00:20:49;;;;;;;;;;;;;;;;;;349549;28;1031;-83
2021/10/31 00:21:00;;;;;;;;;;;;;;;;;;349899;28;1453;-84
2021/10/31 00:21:10;;;;;;;;;;;;;;;;;;351265;28;1161;-85
2021/10/31 00:21:22;;;;;;;;;;;;;;;;;;349913;28;1902;-84
2021/10/31 00:21:41;;;;;;;;;;;;;;;;;;348488;28;1266;-85
2021/10/31 00:21:58;;;;;;;;;;;;;;;;;;348447;28;1178;-86
2021/10/31 00:22:24;;;;;;;;;;;;;;;;;;348428;28;924;-83
2021/10/31 00:22:35;;;;;;;;;;;;;;;;;;348604;28;992;-84
2021/10/31 00:22:47;;;;;;;;;;;;;;;;;;348562;28;454;-84
2021/10/31 00:22:57;;;;;;;;;;;;;;;;;;348446;28;1176;-83
2021/10/31 00:23:08;;;;;;;;;;;;;;;;;;347009;28;950;-85
2021/10/31 00:23:19;;;;;;;;;;;;;;;;;;348482;28;1412;-85
2021/10/31 00:23:29;;;;;;;;;;;;;;;;;;349177;28;1573;-84
2021/10/31 00:23:40;;;;;;;;;;;;;;;;;;349913;28;968;-84
2021/10/31 00:23:50;;;;;;;;;;;;;;;;;;349970;28;984;-85
2021/10/31 00:24:01;;;;;;;;;;;;;;;;;;349780;28;972;-83
2021/10/31 00:25:03;;;;;;;;;;;;;;;;;;351231;28;849;-84
2021/10/31 00:25:44;;;;;;;;;;;;;;;;;;348469;28;1417;-85
2021/10/31 00:25:54;;;;;;;;;;;;;;;;;;348539;28;989;-85
2021/10/31 00:26:06;;;;;;;;;;;;;;;;;;347070;28;1455;-85
2021/10/31 00:26:16;;;;;;;;;;;;;;;;;;347153;28;858;-86
2021/10/31 00:26:26;;;;;;;;;;;;;;;;;;347113;28;877;-84
2021/10/31 00:26:52;;;;;;;;;;;;;;;;;;345791;28;1275;-85
2021/10/31 00:27:03;;;;;;;;;;;;;;;;;;347205;28;1024;-86
2021/10/31 00:27:14;;;;;;;;;;;;;;;;;;345586;28;1696;-85
2021/10/31 00:27:24;;;;;;;;;;;;;;;;;;345698;28;914;-84
2021/10/31 00:27:35;;;;;;;;;;;;;;;;;;347018;28;1471;-84
2021/10/31 00:27:45;;;;;;;;;;;;;;;;;;345616;28;994;-84
2021/10/31 00:27:55;;;;;;;;;;;;;;;;;;345829;28;972;-83
2021/10/31 00:28:06;;;;;;;;;;;;;;;;;;345805;28;989;-85
2021/10/31 00:28:16;;;;;;;;;;;;;;;;;;345759;28;981;-85
2021/10/31 00:28:27;;;;;;;;;;;;;;;;;;347027;28;1184;-83
2021/10/31 00:28:37;;;;;;;;;;;;;;;;;;349893;28;928;-85
2021/10/31 00:28:48;;;;;;;;;;;;;;;;;;349910;28;932;-85
2021/10/31 00:28:58;;;;;;;;;;;;;;;;;;348638;28;1688;-85
2021/10/31 00:29:09;;;;;;;;;;;;;;;;;;348587;28;981;-84
2021/10/31 00:29:19;;;;;;;;;;;;;;;;;;349884;28;1398;-84
2021/10/31 00:29:29;;;;;;;;;;;;;;;;;;345467;28;1334;-85
2021/10/31 00:29:46;;;;;;;;;;;;;;;;;;345830;28;936;-84
2021/10/31 00:30:03;;;;;;;;;;;;;;;;;;345794;28;1060;-84
2021/10/31 00:30:13;;;;;;;;;;;;;;;;;;346943;28;1038;-85
2021/10/31 00:30:29;;;;;;;;;;;;;;;;;;347106;28;1044;-85
2021/10/31 00:30:40;;;;;;;;;;;;;;;;;;347118;28;889;-86
2021/10/31 00:30:51;;;;;;;;;;;;;;;;;;347181;28;925;-86
2021/10/31 00:31:01;;;;;;;;;;;;;;;;;;345722;28;1308;-86
2021/10/31 00:31:12;;;;;;;;;;;;;;;;;;345839;28;921;-86
2021/10/31 00:31:22;;;;;;;;;;;;;;;;;;345872;28;942;-86
2021/10/31 00:31:33;;;;;;;;;;;;;;;;;;347209;28;1009;-86
2021/10/31 00:31:55;;;;;;;;;;;;;;;;;;347111;28;988;-85
2021/10/31 00:32:11;;;;;;;;;;;;;;;;;;347097;28;1004;-85
2021/10/31 00:32:22;;;;;;;;;;;;;;;;;;347096;28;1024;-84
2021/10/31 00:32:32;;;;;;;;;;;;;;;;;;347125;28;909;-84
2021/10/31 00:32:43;;;;;;;;;;;;;;;;;;347124;28;901;-85
2021/10/31 00:32:53;;;;;;;;;;;;;;;;;;347156;28;834;-83
2021/10/31 00:33:04;;;;;;;;;;;;;;;;;;348480;28;1317;-85
2021/10/31 00:33:14;;;;;;;;;;;;;;;;;;348605;28;833;-82
2021/10/31 00:33:24;;;;;;;;;;;;;;;;;;348553;28;980;-84
2021/10/31 00:33:35;;;;;;;;;;;;;;;;;;348517;28;933;-85
2021/10/31 00:33:45;;;;;;;;;;;;;;;;;;348511;28;1063;-82
2021/10/31 00:33:56;;;;;;;;;;;;;;;;;;348512;28;980;-85
2021/10/31 00:34:06;;;;;;;;;;;;;;;;;;348533;28;977;-84
2021/10/31 00:34:32;;;;;;;;;;;;;;;;;;348316;28;949;-84
2021/10/31 00:34:43;;;;;;;;;;;;;;;;;;348561;28;834;-85
2021/10/31 00:34:53;;;;;;;;;;;;;;;;;;348472;28;1032;-85
2021/10/31 00:35:04;;;;;;;;;;;;;;;;;;347150;28;1005;-85
2021/10/31 00:35:15;;;;;;;;;;;;;;;;;;347034;28;1163;-85
2021/10/31 00:35:25;;;;;;;;;;;;;;;;;;347005;28;1453;-84
2021/10/31 00:35:36;;;;;;;;;;;;;;;;;;347197;28;897;-85
2021/10/31 00:35:46;;;;;;;;;;;;;;;;;;347097;28;1562;-86
2021/10/31 00:35:57;;;;;;;;;;;;;;;;;;347050;28;1263;-85
2021/10/31 00:36:07;;;;;;;;;;;;;;;;;;345777;28;1008;-84
2021/10/31 00:36:18;;;;;;;;;;;;;;;;;;344517;28;1585;-86
2021/10/31 00:36:28;;;;;;;;;;;;;;;;;;344477;28;1012;-85
2021/10/31 00:36:38;;;;;;;;;;;;;;;;;;344476;28;826;-84
2021/10/31 00:37:04;;;;;;;;;;;;;;;;;;344435;28;997;-85
2021/10/31 00:37:14;;;;;;;;;;;;;;;;;;347077;28;1088;-85
2021/10/31 00:37:25;;;;;;;;;;;;;;;;;;348167;28;1530;-85
2021/10/31 00:37:35;;;;;;;;;;;;;;;;;;348612;28;853;-86
2021/10/31 00:37:46;;;;;;;;;;;;;;;;;;347167;28;1064;-83
2021/10/31 00:38:12;;;;;;;;;;;;;;;;;;348090;28;1033;-83
2021/10/31 00:38:24;;;;;;;;;;;;;;;;;;348495;28;865;-85
2021/10/31 00:38:36;;;;;;;;;;;;;;;;;;348528;28;1004;-86
2021/10/31 00:38:46;;;;;;;;;;;;;;;;;;348575;28;964;-84
2021/10/31 00:38:57;;;;;;;;;;;;;;;;;;348535;28;1037;-83
2021/10/31 00:39:07;;;;;;;;;;;;;;;;;;348199;28;1423;-86
2021/10/31 00:39:18;;;;;;;;;;;;;;;;;;348763;28;1074;-86
2021/10/31 00:39:29;;;;;;;;;;;;;;;;;;349852;28;1095;-83
2021/10/31 00:39:39;;;;;;;;;;;;;;;;;;350192;28;1154;-85
2021/10/31 00:40:16;;;;;;;;;;;;;;;;;;351261;28;984;-84
2021/10/31 00:40:26;;;;;;;;;;;;;;;;;;351201;28;825;-84
2021/10/31 00:40:37;;;;;;;;;;;;;;;;;;351268;28;920;-85
2021/10/31 00:40:47;;;;;;;;;;;;;;;;;;351040;28;1350;-85
2021/10/31 00:40:58;;;;;;;;;;;;;;;;;;349976;28;822;-83
2021/10/31 00:41:09;;;;;;;;;;;;;;;;;;349978;28;874;-85
2021/10/31 00:41:19;;;;;;;;;;;;;;;;;;348400;28;1878;-84
2021/10/31 00:41:30;;;;;;;;;;;;;;;;;;349943;28;933;-84
2021/10/31 00:41:40;;;;;;;;;;;;;;;;;;349988;28;881;-85
2021/10/31 00:41:50;;;;;;;;;;;;;;;;;;349870;28;956;-85
2021/10/31 00:42:01;;;;;;;;;;;;;;;;;;348411;28;1508;-85
2021/10/31 00:42:11;;;;;;;;;;;;;;;;;;348476;28;1473;-86
2021/10/31 00:42:22;;;;;;;;;;;;;;;;;;347984;28;940;-84
2021/10/31 00:42:36;;;;;;;;;;;;;;;;;;348475;28;830;-85
2021/10/31 00:43:18;;;;;;;;;;;;;;;;;;348418;28;1158;-86
2021/10/31 00:43:28;;;;;;;;;;;;;;;;;;345951;28;1430;-84
2021/10/31 00:43:39;;;;;;;;;;;;;;;;;;345679;28;1364;-84
2021/10/31 00:44:04;;;;;;;;;;;;;;;;;;345749;28;992;-83
2021/10/31 00:44:20;;;;;;;;;;;;;;;;;;347137;28;822;-86
2021/10/31 00:44:31;;;;;;;;;;;;;;;;;;347158;28;996;-85
2021/10/31 00:44:41;;;;;;;;;;;;;;;;;;348557;28;1347;-85
2021/10/31 00:45:06;;;;;;;;;;;;;;;;;;348520;28;1052;-85
2021/10/31 00:45:22;;;;;;;;;;;;;;;;;;348749;28;1234;-84
2021/10/31 00:45:32;;;;;;;;;;;;;;;;;;348282;28;1356;-84
2021/10/31 00:45:43;;;;;;;;;;;;;;;;;;348299;28;956;-84
2021/10/31 00:45:54;;;;;;;;;;;;;;;;;;348551;28;874;-83
2021/10/31 00:46:10;;;;;;;;;;;;;;;;;;348619;28;928;-82
2021/10/31 00:46:21;;;;;;;;;;;;;;;;;;348406;28;984;-81
2021/10/31 00:46:31;;;;;;;;;;;;;;;;;;348618;28;787;-83
2021/10/31 00:46:41;;;;;;;;;;;;;;;;;;347274;28;1035;-86
2021/10/31 00:46:58;;;;;;;;;;;;;;;;;;348407;28;1273;-81
2021/10/31 00:47:09;;;;;;;;;;;;;;;;;;348398;28;1584;-84
2021/10/31 00:47:19;;;;;;;;;;;;;;;;;;349301;28;932;-86
2021/10/31 00:47:30;;;;;;;;;;;;;;;;;;348322;28;1165;-84
2021/10/31 00:47:40;;;;;;;;;;;;;;;;;;348456;28;1497;-84
2021/10/31 00:47:53;;;;;;;;;;;;;;;;;;345641;28;1250;-85
2021/10/31 00:48:03;;;;;;;;;;;;;;;;;;344244;28;1512;-82
2021/10/31 00:48:13;;;;;;;;;;;;;;;;;;346759;28;1307;-85
2021/10/31 00:48:24;;;;;;;;;;;;;;;;;;345793;28;1333;-85
2021/10/31 00:48:34;;;;;;;;;;;;;;;;;;345746;28;814;-84
2021/10/31 00:48:45;;;;;;;;;;;;;;;;;;345526;28;958;-85
2021/10/31 00:49:21;;;;;;;;;;;;;;;;;;345788;28;1013;-81
2021/10/31 00:49:31;;;;;;;;;;;;;;;;;;344436;28;1029;-85
2021/10/31 00:49:42;;;;;;;;;;;;;;;;;;344447;28;826;-86
2021/10/31 00:50:18;;;;;;;;;;;;;;;;;;347652;28;830;-84
2021/10/31 00:50:29;;;;;;;;;;;;;;;;;;348508;28;881;-84
2021/10/31 00:50:40;;;;;;;;;;;;;;;;;;348532;28;873;-84
2021/10/31 00:50:51;;;;;;;;;;;;;;;;;;348567;28;767;-85
2021/10/31 00:51:28;;;;;;;;;;;;;;;;;;348527;28;915;-83
2021/10/31 00:51:39;;;;;;;;;;;;;;;;;;351273;28;1281;-82
2021/10/31 00:51:49;;;;;;;;;;;;;;;;;;351294;28;996;-84
2021/10/31 00:52:00;;;;;;;;;;;;;;;;;;351352;28;782;-86
2021/10/31 00:52:11;;;;;;;;;;;;;;;;;;351235;28;880;-84
2021/10/31 00:52:21;;;;;;;;;;;;;;;;;;351252;28;1229;-84
2021/10/31 00:52:32;;;;;;;;;;;;;;;;;;351231;28;972;-84
2021/10/31 00:52:42;;;;;;;;;;;;;;;;;;349768;28;1351;-81
2021/10/31 00:52:53;;;;;;;;;;;;;;;;;;349866;28;1028;-83
2021/10/31 00:53:04;;;;;;;;;;;;;;;;;;349889;28;916;-83
2021/10/31 00:53:15;;;;;;;;;;;;;;;;;;349866;28;873;-85
2021/10/31 00:53:26;;;;;;;;;;;;;;;;;;349897;28;856;-84
2021/10/31 00:53:38;;;;;;;;;;;;;;;;;;348802;28;922;-85
2021/10/31 00:53:49;;;;;;;;;;;;;;;;;;348521;28;924;-84
2021/10/31 00:54:08;;;;;;;;;;;;;;;;;;349818;28;1009;-84
2021/10/31 00:54:19;;;;;;;;;;;;;;;;;;348409;28;1500;-84
2021/10/31 00:54:30;;;;;;;;;;;;;;;;;;348518;28;908;-83
2021/10/31 00:54:40;;;;;;;;;;;;;;;;;;348534;28;861;-83
2021/10/31 00:54:51;;;;;;;;;;;;;;;;;;348543;28;841;-83
2021/10/31 00:55:02;;;;;;;;;;;;;;;;;;348558;28;944;-84
2021/10/31 00:55:13;;;;;;;;;;;;;;;;;;348456;28;844;-84
2021/10/31 00:55:24;;;;;;;;;;;;;;;;;;348408;28;1055;-81
2021/10/31 00:55:34;;;;;;;;;;;;;;;;;;348598;28;864;-83
2021/10/31 00:55:45;;;;;;;;;;;;;;;;;;348483;28;980;-82
2021/10/31 00:55:55;;;;;;;;;;;;;;;;;;347909;28;873;-83
2021/10/31 00:56:07;;;;;;;;;;;;;;;;;;347188;28;1040;-80
2021/10/31 00:56:17;;;;;;;;;;;;;;;;;;348164;28;862;-84
2021/10/31 00:56:28;;;;;;;;;;;;;;;;;;348484;28;1052;-82
2021/10/31 00:56:39;;;;;;;;;;;;;;;;;;348460;28;833;-84
2021/10/31 00:57:22;;;;;;;;;;;;;;;;;;348416;28;952;-83
2021/10/31 00:57:33;;;;;;;;;;;;;;;;;;348072;28;1182;-82
2021/10/31 00:57:43;;;;;;;;;;;;;;;;;;348365;28;1015;-84
2021/10/31 00:57:54;;;;;;;;;;;;;;;;;;348474;28;849;-81
2021/10/31 00:58:05;;;;;;;;;;;;;;;;;;348541;28;842;-84
2021/10/31 00:58:15;;;;;;;;;;;;;;;;;;348492;28;988;-81
2021/10/31 00:58:25;;;;;;;;;;;;;;;;;;348514;28;853;-83
2021/10/31 00:58:37;;;;;;;;;;;;;;;;;;348253;28;998;-82
2021/10/31 00:58:47;;;;;;;;;;;;;;;;;;348341;28;1354;-84
2021/10/31 00:58:58;;;;;;;;;;;;;;;;;;348498;28;991;-84
2021/10/31 00:59:08;;;;;;;;;;;;;;;;;;348544;28;1055;-84
2021/10/31 00:59:19;;;;;;;;;;;;;;;;;;348504;28;996;-82
2021/10/31 00:59:29;;;;;;;;;;;;;;;;;;348541;28;869;-82
2021/10/31 00:59:39;;;;;;;;;;;;;;;;;;348465;28;810;-82
2021/10/31 00:59:50;;;;;;;;;;;;;;;;;;348451;28;817;-83
2021/10/31 01:00:00;;;;;;;;;;;;;;;;;;348526;28;873;-84
2021/10/31 01:00:11;;;;;;;;;;;;;;;;;;348479;28;904;-84
2021/10/31 01:00:21;;;;;;;;;;;;;;;;;;348593;28;980;-82
2021/10/31 01:00:37;;;;;;;;;;;;;;;;;;348612;28;1070;-83
2021/10/31 01:00:48;;;;;;;;;;;;;;;;;;348605;28;809;-84
2021/10/31 01:00:59;;;;;;;;;;;;;;;;;;348540;28;1167;-83
2021/10/31 01:01:09;;;;;;;;;;;;;;;;;;349821;28;1423;-83
2021/10/31 01:01:20;;;;;;;;;;;;;;;;;;349740;28;1897;-84
2021/10/31 01:01:31;;;;;;;;;;;;;;;;;;349632;28;1417;-83
2021/10/31 01:01:43;;;;;;;;;;;;;;;;;;349884;28;805;-84
2021/10/31 01:01:53;;;;;;;;;;;;;;;;;;349589;28;1612;-83
2021/10/31 01:02:46;;;;;;;;;;;;;;;;;;349635;28;1359;-84
2021/10/31 01:02:56;;;;;;;;;;;;;;;;;;349863;28;976;-85
2021/10/31 01:03:07;;;;;;;;;;;;;;;;;;348972;28;988;-85
2021/10/31 01:03:17;;;;;;;;;;;;;;;;;;348402;28;1015;-85
2021/10/31 01:03:43;;;;;;;;;;;;;;;;;;348553;28;900;-85
2021/10/31 01:03:56;;;;;;;;;;;;;;;;;;348554;28;866;-84
2021/10/31 01:04:06;;;;;;;;;;;;;;;;;;348419;28;834;-83
2021/10/31 01:04:23;;;;;;;;;;;;;;;;;;348520;28;1012;-84
2021/10/31 01:05:01;;;;;;;;;;;;;;;;;;348589;28;1047;-83
2021/10/31 01:05:13;;;;;;;;;;;;;;;;;;350203;28;1293;-82
2021/10/31 01:05:29;;;;;;;;;;;;;;;;;;351309;28;786;-85
2021/10/31 01:05:46;;;;;;;;;;;;;;;;;;351281;28;984;-82
2021/10/31 01:06:13;;;;;;;;;;;;;;;;;;351243;28;880;-84
2021/10/31 01:06:42;;;;;;;;;;;;;;;;;;351183;28;904;-84
2021/10/31 01:06:52;;;;;;;;;;;;;;;;;;351285;28;940;-83
2021/10/31 01:07:10;;;;;;;;;;;;;;;;;;351335;28;454;-83
2021/10/31 01:07:41;;;;;;;;;;;;;;;;;;348420;28;912;-84
2021/10/31 01:07:58;;;;;;;;;;;;;;;;;;348649;28;933;-84
2021/10/31 01:08:15;;;;;;;;;;;;;;;;;;349814;28;1580;-83
2021/10/31 01:08:25;;;;;;;;;;;;;;;;;;349827;28;1007;-84
2021/10/31 01:08:49;;;;;;;;;;;;;;;;;;349736;28;988;-85
2021/10/31 01:09:04;;;;;;;;;;;;;;;;;;349821;28;1539;-84
2021/10/31 01:09:33;;;;;;;;;;;;;;;;;;349868;28;996;-84
2021/10/31 01:10:02;;;;;;;;;;;;;;;;;;349883;28;845;-83
2021/10/31 01:10:32;;;;;;;;;;;;;;;;;;348475;28;949;-81
2021/10/31 01:11:01;;;;;;;;;;;;;;;;;;348380;28;833;-83
2021/10/31 01:11:12;;;;;;;;;;;;;;;;;;348619;28;884;-83
2021/10/31 01:11:31;;;;;;;;;;;;;;;;;;348629;28;1008;-84
2021/10/31 01:12:00;;;;;;;;;;;;;;;;;;348554;28;826;-82
2021/10/31 01:12:13;;;;;;;;;;;;;;;;;;348542;28;1023;-85
2021/10/31 01:12:47;;;;;;;;;;;;;;;;;;348626;28;924;-83
2021/10/31 01:13:22;;;;;;;;;;;;;;;;;;346956;28;1012;-83
2021/10/31 01:13:51;;;;;;;;;;;;;;;;;;347093;28;1028;-84
2021/10/31 01:14:31;;;;;;;;;;;;;;;;;;347098;28;877;-82
2021/10/31 01:14:46;;;;;;;;;;;;;;;;;;343011;28;1279;-84
2021/10/31 01:15:12;;;;;;;;;;;;;;;;;;343066;28;882;-85
2021/10/31 01:15:26;;;;;;;;;;;;;;;;;;345683;28;1082;-85
2021/10/31 01:15:42;;;;;;;;;;;;;;;;;;345624;28;1026;-81
2021/10/31 01:15:53;;;;;;;;;;;;;;;;;;345699;28;1020;-77
2021/10/31 01:16:21;;;;;;;;;;;;;;;;;;345697;28;877;-86
2021/10/31 01:16:46;;;;;;;;;;;;;;;;;;345674;28;934;-85
2021/10/31 01:16:56;;;;;;;;;;;;;;;;;;345658;28;1437;-83
2021/10/31 01:17:15;;;;;;;;;;;;;;;;;;345711;28;925;-86
2021/10/31 01:17:25;;;;;;;;;;;;;;;;;;345621;28;885;-82
2021/10/31 01:17:41;;;;;;;;;;;;;;;;;;345708;28;988;-84
2021/10/31 01:18:10;;;;;;;;;;;;;;;;;;345601;28;1000;-82
2021/10/31 01:18:33;;;;;;;;;;;;;;;;;;345714;28;1107;-83
2021/10/31 01:18:55;;;;;;;;;;;;;;;;;;345712;28;989;-80
2021/10/31 01:19:12;;;;;;;;;;;;;;;;;;347070;28;943;-84
2021/10/31 01:19:42;;;;;;;;;;;;;;;;;;347013;28;904;-85
2021/10/31 01:20:09;;;;;;;;;;;;;;;;;;345690;28;965;-81
2021/10/31 01:20:32;;;;;;;;;;;;;;;;;;347044;28;1562;-83
2021/10/31 01:20:42;;;;;;;;;;;;;;;;;;347084;28;841;-84
2021/10/31 01:21:02;;;;;;;;;;;;;;;;;;348336;28;1307;-84
2021/10/31 01:21:18;;;;;;;;;;;;;;;;;;347033;28;1007;-84
2021/10/31 01:21:34;;;;;;;;;;;;;;;;;;348321;28;1457;-86
2021/10/31 01:21:56;;;;;;;;;;;;;;;;;;348436;28;924;-84
2021/10/31 01:22:07;;;;;;;;;;;;;;;;;;348512;28;904;-84
2021/10/31 01:22:37;;;;;;;;;;;;;;;;;;347627;28;888;-83
2021/10/31 01:23:06;;;;;;;;;;;;;;;;;;343659;28;1144;-84
2021/10/31 01:23:23;;;;;;;;;;;;;;;;;;344287;28;1435;-84
2021/10/31 01:23:44;;;;;;;;;;;;;;;;;;344325;28;1004;-80
2021/10/31 01:24:12;;;;;;;;;;;;;;;;;;343556;28;1629;-84
2021/10/31 01:25:35;;;;;;;;;;;;;;;;;;345634;28;957;-83
2021/10/31 01:26:02;;;;;;;;;;;;;;;;;;346215;28;1016;-82
2021/10/31 01:26:13;;;;;;;;;;;;;;;;;;347057;28;949;-82
2021/10/31 01:26:29;;;;;;;;;;;;;;;;;;346909;28;878;-82
2021/10/31 01:27:42;;;;;;;;;;;;;;;;;;347062;28;1039;-84
2021/10/31 01:27:53;;;;;;;;;;;;;;;;;;346940;28;973;-83
2021/10/31 01:28:14;;;;;;;;;;;;;;;;;;346867;28;984;-80
2021/10/31 01:28:28;;;;;;;;;;;;;;;;;;346850;28;1368;-82
2021/10/31 01:28:44;;;;;;;;;;;;;;;;;;346995;28;989;-80
2021/10/31 01:28:54;;;;;;;;;;;;;;;;;;347063;28;838;-83
2021/10/31 01:29:23;;;;;;;;;;;;;;;;;;347061;28;802;-84
2021/10/31 01:29:52;;;;;;;;;;;;;;;;;;347108;28;846;-84
2021/10/31 01:30:10;;;;;;;;;;;;;;;;;;347053;28;956;-83
2021/10/31 01:30:38;;;;;;;;;;;;;;;;;;347102;28;857;-82
2021/10/31 01:30:49;;;;;;;;;;;;;;;;;;346980;28;969;-84
2021/10/31 01:30:59;;;;;;;;;;;;;;;;;;347089;28;909;-85
2021/10/31 01:31:35;;;;;;;;;;;;;;;;;;346990;28;983;-82
2021/10/31 01:31:45;;;;;;;;;;;;;;;;;;346973;28;964;-78
2021/10/31 01:32:05;;;;;;;;;;;;;;;;;;347028;28;976;-83
2021/10/31 01:32:18;;;;;;;;;;;;;;;;;;347038;28;830;-82
2021/10/31 01:32:29;;;;;;;;;;;;;;;;;;347017;28;1059;-85
2021/10/31 01:32:39;;;;;;;;;;;;;;;;;;345563;28;1182;-85
2021/10/31 01:32:52;;;;;;;;;;;;;;;;;;345637;28;921;-84
2021/10/31 01:33:10;;;;;;;;;;;;;;;;;;345503;28;990;-82
2021/10/31 01:33:39;;;;;;;;;;;;;;;;;;345679;28;1024;-83
2021/10/31 01:34:01;;;;;;;;;;;;;;;;;;345684;28;1000;-85
2021/10/31 01:34:12;;;;;;;;;;;;;;;;;;345707;28;1020;-85
2021/10/31 01:34:40;;;;;;;;;;;;;;;;;;345771;28;815;-83
2021/10/31 01:35:07;;;;;;;;;;;;;;;;;;347057;28;987;-84
2021/10/31 01:35:20;;;;;;;;;;;;;;;;;;347075;28;912;-80
2021/10/31 01:35:50;;;;;;;;;;;;;;;;;;346999;28;929;-83
2021/10/31 01:36:13;;;;;;;;;;;;;;;;;;347016;28;933;-81
2021/10/31 01:37:01;;;;;;;;;;;;;;;;;;347104;28;906;-78
2021/10/31 01:37:26;;;;;;;;;;;;;;;;;;344337;28;839;-78
2021/10/31 01:37:46;;;;;;;;;;;;;;;;;;342861;28;1254;-80
2021/10/31 01:38:03;;;;;;;;;;;;;;;;;;342808;28;1161;-77
2021/10/31 01:38:16;;;;;;;;;;;;;;;;;;342943;28;918;-85
2021/10/31 01:38:33;;;;;;;;;;;;;;;;;;342892;28;1455;-82
2021/10/31 01:38:43;;;;;;;;;;;;;;;;;;344334;28;953;-83
2021/10/31 01:39:00;;;;;;;;;;;;;;;;;;342853;28;1358;-81
2021/10/31 01:39:19;;;;;;;;;;;;;;;;;;343015;28;981;-83
2021/10/31 01:39:52;;;;;;;;;;;;;;;;;;343245;28;1005;-81
2021/10/31 01:40:41;;;;;;;;;;;;;;;;;;347081;28;902;-83
2021/10/31 01:41:10;;;;;;;;;;;;;;;;;;346100;28;869;-79
2021/10/31 01:41:24;;;;;;;;;;;;;;;;;;346942;28;1894;-82
2021/10/31 01:41:42;;;;;;;;;;;;;;;;;;346993;28;1543;-83
2021/10/31 01:42:11;;;;;;;;;;;;;;;;;;346953;28;1009;-84
2021/10/31 01:42:24;;;;;;;;;;;;;;;;;;347044;28;1040;-83
2021/10/31 01:42:40;;;;;;;;;;;;;;;;;;347034;28;1358;-83
2021/10/31 01:42:51;;;;;;;;;;;;;;;;;;347098;28;814;-84
2021/10/31 01:43:04;;;;;;;;;;;;;;;;;;346960;28;996;-84
2021/10/31 01:44:10;;;;;;;;;;;;;;;;;;347004;28;1251;-82
2021/10/31 01:44:20;;;;;;;;;;;;;;;;;;347029;28;870;-84
2021/10/31 01:44:51;;;;;;;;;;;;;;;;;;346969;28;1113;-83
2021/10/31 01:45:04;;;;;;;;;;;;;;;;;;346689;28;1140;-83
2021/10/31 01:45:19;;;;;;;;;;;;;;;;;;347070;28;842;-81
2021/10/31 01:45:52;;;;;;;;;;;;;;;;;;346900;28;1514;-83
2021/10/31 01:46:09;;;;;;;;;;;;;;;;;;343048;28;1032;-83
2021/10/31 01:46:31;;;;;;;;;;;;;;;;;;341459;29;1280;-83
2021/10/31 01:46:44;;;;;;;;;;;;;;;;;;341666;29;982;-84
2021/10/31 01:46:59;;;;;;;;;;;;;;;;;;343049;28;831;-84
2021/10/31 01:47:28;;;;;;;;;;;;;;;;;;344393;28;787;-84
2021/10/31 01:47:39;;;;;;;;;;;;;;;;;;344339;28;1013;-85
2021/10/31 01:48:00;;;;;;;;;;;;;;;;;;344326;28;941;-85
2021/10/31 01:48:29;;;;;;;;;;;;;;;;;;345562;28;826;-81
2021/10/31 01:49:02;;;;;;;;;;;;;;;;;;346957;28;1318;-83
2021/10/31 01:49:12;;;;;;;;;;;;;;;;;;346967;28;1257;-78
2021/10/31 01:49:33;;;;;;;;;;;;;;;;;;347009;28;981;-84
2021/10/31 01:49:53;;;;;;;;;;;;;;;;;;347029;28;814;-83
2021/10/31 01:50:12;;;;;;;;;;;;;;;;;;347013;28;920;-80
2021/10/31 01:50:42;;;;;;;;;;;;;;;;;;347085;28;834;-80
2021/10/31 01:51:32;;;;;;;;;;;;;;;;;;348441;28;846;-80
2021/10/31 01:51:46;;;;;;;;;;;;;;;;;;348510;28;991;-84
2021/10/31 01:52:03;;;;;;;;;;;;;;;;;;348435;28;1043;-82